Time;durP1;ratioP1;P1;durP2;ratioP2;P2;SDS_P1;SDS_P2;PMS_P1;PMS_P2;Temp;Humidity;BMP_temperature;BMP_pressure;BME280_temperature;BME280_humidity;BME280_pressure;Samples;Min_cycle;Max_cycle;Signal;HPM_P1;HPM_P2
2023/05/10 00:00:17;;;;;;;14.77;13.18;;;16.10;99.90;;;;;;5135066;27;20142;-80
2023/05/10 00:02:42;;;;;;;17.77;15.15;;;16.10;99.90;;;;;;5118090;27;20031;-80
2023/05/10 00:05:09;;;;;;;18.40;16.15;;;16.10;99.90;;;;;;5136364;27;20027;-80
2023/05/10 00:07:34;;;;;;;21.40;17.05;;;16.10;99.90;;;;;;5135063;27;20455;-79
2023/05/10 00:10:00;;;;;;;19.75;16.75;;;16.10;99.90;;;;;;5135177;27;20038;-80
2023/05/10 00:12:25;;;;;;;19.40;16.38;;;16.00;99.90;;;;;;5135335;27;20042;-80
2023/05/10 00:14:51;;;;;;;22.30;17.38;;;16.10;99.90;;;;;;5134366;27;20034;-81
2023/05/10 00:17:17;;;;;;;28.48;21.90;;;16.10;99.90;;;;;;5133992;27;20118;-80
2023/05/10 00:19:42;;;;;;;26.90;21.50;;;16.00;99.90;;;;;;5135259;27;20064;-80
2023/05/10 00:22:08;;;;;;;26.92;21.70;;;16.00;99.90;;;;;;5117867;27;20029;-79
2023/05/10 00:24:33;;;;;;;28.98;21.65;;;16.00;99.90;;;;;;5134413;27;20487;-80
2023/05/10 00:27:00;;;;;;;26.67;19.58;;;15.90;99.90;;;;;;5135923;27;20023;-80
2023/05/10 00:29:27;;;;;;;27.70;21.67;;;15.90;99.90;;;;;;5134988;27;20027;-80
2023/05/10 00:31:53;;;;;;;31.58;24.17;;;15.90;99.90;;;;;;5134446;27;20032;-80
2023/05/10 00:34:19;;;;;;;33.17;25.25;;;15.90;99.90;;;;;;5117521;27;20033;-80
2023/05/10 00:36:44;;;;;;;35.63;25.92;;;15.90;99.90;;;;;;5136033;27;20037;-80
2023/05/10 00:39:10;;;;;;;33.70;26.33;;;15.90;99.90;;;;;;5117831;27;20023;-80
2023/05/10 00:41:36;;;;;;;38.33;28.65;;;15.80;99.90;;;;;;5135071;27;20034;-79
2023/05/10 00:44:04;;;;;;;39.33;30.15;;;15.80;99.90;;;;;;5134607;27;20031;-80
2023/05/10 00:46:29;;;;;;;37.65;28.52;;;15.70;99.90;;;;;;5135476;27;20023;-79
2023/05/10 00:48:55;;;;;;;42.20;31.92;;;15.70;99.90;;;;;;5117144;27;20114;-79
2023/05/10 00:51:21;;;;;;;44.35;32.80;;;15.70;99.90;;;;;;5116684;27;20039;-80
2023/05/10 00:53:49;;;;;;;40.95;31.40;;;15.60;99.90;;;;;;5136214;27;20055;-79
2023/05/10 00:56:15;;;;;;;42.85;32.05;;;15.60;99.90;;;;;;5138061;27;20398;-79
2023/05/10 00:58:42;;;;;;;42.03;30.30;;;15.60;99.90;;;;;;5156170;27;20027;-79
2023/05/10 01:01:09;;;;;;;43.40;31.38;;;15.60;99.90;;;;;;5120772;27;20087;-79
2023/05/10 01:03:35;;;;;;;41.45;31.05;;;15.60;99.90;;;;;;5137324;27;20058;-79
2023/05/10 01:06:01;;;;;;;45.65;32.58;;;15.60;99.90;;;;;;5137320;27;20113;-79
2023/05/10 01:08:28;;;;;;;46.33;33.72;;;15.60;99.90;;;;;;5137238;27;20117;-79
2023/05/10 01:10:54;;;;;;;46.85;33.85;;;15.60;99.90;;;;;;5120090;27;20030;-80
2023/05/10 01:13:29;;;;;;;44.60;31.95;;;15.60;99.90;;;;;;5136991;27;20037;-80
2023/05/10 01:15:55;;;;;;;45.53;31.75;;;15.60;99.90;;;;;;5137146;27;20023;-80
2023/05/10 01:18:21;;;;;;;44.95;31.73;;;15.60;99.90;;;;;;5120503;27;20475;-79
2023/05/10 01:20:55;;;;;;;47.20;33.75;;;15.60;99.90;;;;;;5137567;27;20027;-80
2023/05/10 01:23:59;;;;;;;51.13;34.88;;;15.70;99.90;;;;;;5156185;27;20019;-79
2023/05/10 01:27:05;;;;;;;52.80;35.50;;;15.60;99.90;;;;;;5137657;27;20023;-79
2023/05/10 01:29:49;;;;;;;60.15;38.55;;;15.60;99.90;;;;;;5085131;27;20058;-79
2023/05/10 01:32:15;;;;;;;55.35;36.42;;;15.50;99.90;;;;;;5155272;27;20022;-79
2023/05/10 01:35:02;;;;;;;54.28;36.70;;;15.50;99.90;;;;;;5155481;27;20015;-79
2023/05/10 01:37:41;;;;;;;52.78;35.80;;;15.40;99.90;;;;;;5155262;27;20084;-79
2023/05/10 01:40:18;;;;;;;55.22;36.58;;;15.40;99.90;;;;;;5155739;27;20022;-79
2023/05/10 01:42:53;;;;;;;53.97;36.13;;;15.40;99.90;;;;;;5155408;27;20148;-79
2023/05/10 01:45:28;;;;;;;54.38;36.00;;;15.30;99.90;;;;;;5155355;27;20019;-80
2023/05/10 01:48:08;;;;;;;52.97;35.65;;;15.30;99.90;;;;;;5155328;27;20019;-79
2023/05/10 01:50:36;;;;;;;52.92;35.38;;;15.30;99.90;;;;;;5155425;27;20027;-79
2023/05/10 01:53:05;;;;;;;50.55;33.42;;;15.20;99.90;;;;;;5136546;27;20498;-80
2023/05/10 01:55:35;;;;;;;51.38;34.95;;;15.20;99.90;;;;;;5155745;27;20047;-79
2023/05/10 01:58:07;;;;;;;53.45;35.20;;;15.30;99.90;;;;;;5155284;27;20055;-80
2023/05/10 02:00:35;;;;;;;55.85;35.67;;;15.30;99.90;;;;;;5155567;27;20101;-79
2023/05/10 02:03:06;;;;;;;49.25;32.20;;;15.30;99.90;;;;;;5155137;27;20031;-80
2023/05/10 02:05:33;;;;;;;48.20;31.92;;;15.30;99.90;;;;;;5155499;27;20023;-80
2023/05/10 02:08:01;;;;;;;46.17;31.73;;;15.40;99.90;;;;;;5137128;27;20084;-80
2023/05/10 02:10:28;;;;;;;48.22;30.98;;;15.40;99.90;;;;;;5154999;27;20037;-79
2023/05/10 02:12:58;;;;;;;50.35;31.58;;;15.30;99.90;;;;;;5102812;27;20023;-80
2023/05/10 02:15:26;;;;;;;48.80;31.05;;;15.30;99.90;;;;;;5136897;27;20057;-80
2023/05/10 02:17:54;;;;;;;52.60;33.08;;;15.30;99.90;;;;;;5136614;27;20027;-79
2023/05/10 02:20:21;;;;;;;50.50;31.98;;;15.30;99.90;;;;;;5136442;27;20378;-80
2023/05/10 02:22:50;;;;;;;50.40;31.08;;;15.30;99.90;;;;;;5136018;27;20026;-80
2023/05/10 02:25:19;;;;;;;56.58;34.10;;;15.20;99.90;;;;;;5136335;27;20019;-79
2023/05/10 02:27:46;;;;;;;54.00;31.88;;;15.20;99.90;;;;;;5154981;27;20101;-79
2023/05/10 02:30:12;;;;;;;53.13;32.53;;;15.20;99.90;;;;;;5136386;27;20096;-79
2023/05/10 02:32:39;;;;;;;55.65;32.58;;;15.20;99.90;;;;;;5155157;27;20374;-79
2023/05/10 02:35:06;;;;;;;52.72;32.03;;;15.20;99.90;;;;;;5136276;27;20031;-78
2023/05/10 02:37:32;;;;;;;55.42;33.13;;;15.20;99.90;;;;;;5136193;27;20027;-81
2023/05/10 02:39:59;;;;;;;53.50;32.95;;;15.20;99.90;;;;;;5138538;27;20026;-79
2023/05/10 02:42:29;;;;;;;55.15;31.80;;;15.20;99.90;;;;;;5139908;27;20383;-81
2023/05/10 02:44:59;;;;;;;54.85;32.67;;;15.10;99.90;;;;;;5140312;27;20031;-80
2023/05/10 02:47:26;;;;;;;58.95;35.65;;;15.10;99.90;;;;;;5140596;27;20511;-80
2023/05/10 02:49:51;;;;;;;58.30;33.38;;;15.10;99.90;;;;;;5140668;27;20143;-80
2023/05/10 02:52:29;;;;;;;57.50;35.53;;;15.10;99.90;;;;;;5140325;27;20115;-79
2023/05/10 02:54:58;;;;;;;59.83;35.70;;;15.10;99.90;;;;;;5158362;27;20053;-79
2023/05/10 02:57:28;;;;;;;63.15;36.17;;;15.00;99.90;;;;;;5158402;27;20019;-80
2023/05/10 02:59:55;;;;;;;61.22;36.83;;;15.00;99.90;;;;;;5140431;27;20366;-79
2023/05/10 03:02:21;;;;;;;65.22;36.60;;;15.00;99.90;;;;;;5122659;27;20431;-79
2023/05/10 03:04:46;;;;;;;61.88;37.58;;;15.00;99.90;;;;;;5139702;27;20053;-79
2023/05/10 03:07:13;;;;;;;62.92;37.22;;;15.00;99.90;;;;;;5158185;27;20109;-79
2023/05/10 03:09:39;;;;;;;64.55;37.10;;;15.00;99.90;;;;;;5139423;27;20463;-80
2023/05/10 03:12:15;;;;;;;66.55;40.08;;;15.00;99.90;;;;;;5157852;27;20534;-79
2023/05/10 03:15:11;;;;;;;66.43;38.28;;;14.90;99.90;;;;;;5139750;27;20026;-80
2023/05/10 03:18:01;;;;;;;67.70;39.22;;;15.00;99.90;;;;;;5158421;27;20023;-80
2023/05/10 03:20:45;;;;;;;63.53;38.00;;;15.00;99.90;;;;;;5140569;27;20376;-80
2023/05/10 03:23:27;;;;;;;66.53;39.85;;;15.00;99.90;;;;;;5157723;27;20022;-80
2023/05/10 03:25:53;;;;;;;64.90;38.63;;;15.00;99.90;;;;;;5157950;27;20022;-80
2023/05/10 03:28:20;;;;;;;67.68;38.78;;;15.00;99.90;;;;;;5157859;27;20050;-79
2023/05/10 03:30:46;;;;;;;65.00;39.55;;;15.00;99.90;;;;;;5139252;27;20459;-79
2023/05/10 03:33:13;;;;;;;70.10;40.20;;;15.00;99.90;;;;;;5139380;27;20114;-79
2023/05/10 03:35:39;;;;;;;66.30;38.28;;;15.00;99.90;;;;;;5138792;27;20114;-80
2023/05/10 03:38:04;;;;;;;62.38;37.08;;;15.00;99.90;;;;;;5122599;27;20375;-78
2023/05/10 03:40:31;;;;;;;64.90;38.50;;;15.00;99.90;;;;;;5139040;27;20037;-79
2023/05/10 03:42:58;;;;;;;67.68;41.80;;;15.00;99.90;;;;;;5138940;27;20035;-79
2023/05/10 03:45:24;;;;;;;65.53;38.60;;;15.00;99.90;;;;;;5157498;27;20022;-79
2023/05/10 03:47:50;;;;;;;66.60;39.72;;;14.90;99.90;;;;;;5139266;27;20101;-80
2023/05/10 03:50:15;;;;;;;63.65;38.95;;;14.90;99.90;;;;;;5157211;27;20086;-79
2023/05/10 03:52:42;;;;;;;63.67;39.67;;;14.90;99.90;;;;;;5121709;27;20034;-80
2023/05/10 03:55:08;;;;;;;65.55;39.47;;;14.90;99.90;;;;;;5138599;27;20054;-79
2023/05/10 03:57:34;;;;;;;62.45;39.45;;;14.80;99.90;;;;;;5121571;27;20160;-79
2023/05/10 03:59:59;;;;;;;67.07;41.20;;;14.80;99.90;;;;;;5121676;27;20031;-80
2023/05/10 04:02:25;;;;;;;64.30;40.03;;;14.70;99.90;;;;;;5138303;27;20023;-79
2023/05/10 04:04:51;;;;;;;65.97;40.63;;;14.70;99.90;;;;;;5139097;27;20027;-79
2023/05/10 04:07:17;;;;;;;63.40;38.25;;;14.70;99.90;;;;;;5157322;27;20034;-79
2023/05/10 04:09:43;;;;;;;62.95;36.53;;;14.70;99.90;;;;;;5156976;27;20441;-79
2023/05/10 04:12:09;;;;;;;63.40;38.85;;;14.70;99.90;;;;;;5138371;27;20118;-81
2023/05/10 04:14:35;;;;;;;60.35;38.05;;;14.70;99.90;;;;;;5138609;27;20079;-80
2023/05/10 04:17:00;;;;;;;59.78;35.22;;;14.70;99.90;;;;;;5137857;27;20027;-79
2023/05/10 04:19:30;;;;;;;63.00;35.67;;;14.70;99.90;;;;;;5156835;27;20022;-79
2023/05/10 04:21:56;;;;;;;53.58;34.30;;;14.80;99.90;;;;;;5138145;27;20038;-76
2023/05/10 04:24:21;;;;;;;52.10;32.75;;;14.70;99.90;;;;;;5156512;27;20027;-80
2023/05/10 04:26:47;;;;;;;54.88;33.97;;;14.80;99.90;;;;;;5156669;27;20027;-80
2023/05/10 04:29:13;;;;;;;53.08;32.65;;;14.80;99.90;;;;;;5121696;27;20027;-80
2023/05/10 04:31:38;;;;;;;53.50;33.97;;;14.80;99.90;;;;;;5156129;27;20031;-79
2023/05/10 04:34:04;;;;;;;58.15;34.20;;;14.80;99.90;;;;;;5138077;27;20058;-78
2023/05/10 04:36:33;;;;;;;58.13;34.53;;;14.80;99.90;;;;;;5156664;27;20027;-79
2023/05/10 04:38:59;;;;;;;54.40;32.70;;;14.80;99.90;;;;;;5138667;27;20366;-78
2023/05/10 04:41:25;;;;;;;60.33;33.78;;;14.80;99.90;;;;;;5137913;27;20031;-78
2023/05/10 04:43:50;;;;;;;57.20;33.83;;;14.80;99.90;;;;;;5137648;27;20026;-79
2023/05/10 04:46:16;;;;;;;58.67;34.40;;;14.80;99.90;;;;;;5120531;27;20425;-79
2023/05/10 04:48:42;;;;;;;62.95;35.03;;;14.70;99.90;;;;;;5137186;27;20027;-80
2023/05/10 04:51:08;;;;;;;65.68;35.40;;;14.70;99.90;;;;;;5103396;27;20061;-80
2023/05/10 04:53:33;;;;;;;61.13;35.60;;;14.70;99.90;;;;;;5137522;27;20027;-79
2023/05/10 04:55:59;;;;;;;59.50;34.72;;;14.70;99.90;;;;;;5120679;27;20034;-80
2023/05/10 04:58:25;;;;;;;59.28;33.00;;;14.70;99.90;;;;;;5120350;27;20023;-80
2023/05/10 05:00:51;;;;;;;61.53;34.88;;;14.70;99.90;;;;;;5120750;27;20033;-80
2023/05/10 05:03:17;;;;;;;56.05;32.85;;;14.70;99.90;;;;;;5155144;27;20463;-80
2023/05/10 05:05:44;;;;;;;65.63;33.78;;;14.70;99.90;;;;;;5155684;27;20038;-80
2023/05/10 05:08:09;;;;;;;58.58;34.20;;;14.70;99.90;;;;;;5137513;27;20483;-80
2023/05/10 05:10:35;;;;;;;60.33;34.08;;;14.70;99.90;;;;;;5137007;27;20087;-80
2023/05/10 05:13:01;;;;;;;56.65;32.60;;;14.70;99.90;;;;;;5137020;27;20105;-80
2023/05/10 05:15:27;;;;;;;60.50;33.42;;;14.70;99.90;;;;;;5120001;27;20066;-80
2023/05/10 05:17:53;;;;;;;59.35;33.25;;;14.70;99.90;;;;;;5137352;27;20054;-80
2023/05/10 05:20:18;;;;;;;55.22;32.20;;;14.70;99.90;;;;;;5137001;27;20034;-80
2023/05/10 05:22:44;;;;;;;62.53;33.00;;;14.70;99.90;;;;;;5155544;27;20022;-79
2023/05/10 05:25:11;;;;;;;56.33;31.63;;;14.80;99.90;;;;;;5155459;27;20023;-80
2023/05/10 05:27:37;;;;;;;55.33;31.98;;;14.70;99.90;;;;;;5155742;27;20057;-79
2023/05/10 05:30:04;;;;;;;52.88;28.92;;;14.80;99.90;;;;;;5120568;27;20084;-80
2023/05/10 05:32:30;;;;;;;56.03;31.58;;;14.90;99.90;;;;;;5120665;27;20344;-75
2023/05/10 05:34:56;;;;;;;50.83;29.83;;;14.90;99.90;;;;;;5137271;27;20370;-75
2023/05/10 05:37:22;;;;;;;51.58;31.92;;;14.90;99.90;;;;;;5155037;27;20025;-76
2023/05/10 05:39:48;;;;;;;51.28;29.27;;;14.90;99.90;;;;;;5120112;27;20034;-76
2023/05/10 05:42:16;;;;;;;53.72;28.23;;;14.90;99.90;;;;;;5119623;27;20379;-74
2023/05/10 05:44:42;;;;;;;55.95;31.45;;;15.00;99.90;;;;;;5137213;27;20037;-75
2023/05/10 05:47:07;;;;;;;54.47;31.15;;;15.00;99.90;;;;;;5155092;27;20018;-74
2023/05/10 05:49:33;;;;;;;54.25;31.00;;;15.00;99.90;;;;;;5155117;27;20546;-76
2023/05/10 05:52:03;;;;;;;58.60;31.65;;;15.00;99.90;;;;;;5136622;27;20062;-75
2023/05/10 05:54:29;;;;;;;50.70;28.75;;;15.00;99.90;;;;;;5136239;27;20482;-75
2023/05/10 05:56:56;;;;;;;56.38;30.98;;;15.00;99.90;;;;;;5136707;27;20035;-74
2023/05/10 05:59:22;;;;;;;54.55;30.73;;;14.90;99.90;;;;;;5154914;27;20088;-75
2023/05/10 06:01:48;;;;;;;51.92;28.75;;;14.90;99.90;;;;;;5136619;27;20035;-75
2023/05/10 06:04:14;;;;;;;54.88;29.58;;;14.90;99.90;;;;;;5154959;27;20015;-75
2023/05/10 06:06:40;;;;;;;54.42;29.27;;;14.90;99.90;;;;;;5119224;27;20071;-75
2023/05/10 06:09:05;;;;;;;60.13;32.70;;;14.90;99.90;;;;;;5155146;27;20035;-75
2023/05/10 06:11:34;;;;;;;58.28;31.63;;;14.90;99.90;;;;;;5136199;27;20042;-76
2023/05/10 06:14:00;;;;;;;58.00;31.00;;;14.90;99.90;;;;;;5157268;27;20109;-75
2023/05/10 06:16:26;;;;;;;45.95;25.23;;;14.90;99.90;;;;;;5159065;27;20054;-75
2023/05/10 06:18:51;;;;;;;60.13;31.92;;;14.90;99.90;;;;;;5140252;27;20033;-75
2023/05/10 06:21:17;;;;;;;59.30;31.17;;;14.90;99.90;;;;;;5158652;27;20491;-76
2023/05/10 06:23:43;;;;;;;60.75;32.22;;;15.00;99.90;;;;;;5122892;27;20056;-75
2023/05/10 06:26:09;;;;;;;64.20;33.58;;;15.00;99.90;;;;;;5140280;27;20023;-75
2023/05/10 06:28:39;;;;;;;57.97;33.75;;;15.00;99.90;;;;;;5158281;27;20030;-74
2023/05/10 06:31:06;;;;;;;61.67;32.72;;;15.00;99.90;;;;;;5124200;27;20107;-73
2023/05/10 06:33:32;;;;;;;62.05;32.05;;;14.90;99.90;;;;;;5141190;27;20027;-81
2023/05/10 06:35:58;;;;;;;56.35;31.90;;;14.90;99.90;;;;;;5123580;27;20383;-84
2023/05/10 06:38:23;;;;;;;61.05;32.13;;;14.90;99.90;;;;;;5123341;27;20027;-83
2023/05/10 06:40:49;;;;;;;63.05;32.80;;;14.90;99.90;;;;;;5140675;27;20061;-82
2023/05/10 06:43:15;;;;;;;54.90;31.08;;;14.90;99.90;;;;;;5140238;27;20064;-83
2023/05/10 06:45:40;;;;;;;60.00;32.38;;;14.90;99.90;;;;;;5122793;27;20034;-78
2023/05/10 06:48:06;;;;;;;59.45;31.23;;;14.90;99.90;;;;;;5139814;27;20058;-80
2023/05/10 06:50:33;;;;;;;58.85;32.78;;;14.90;99.90;;;;;;5158394;27;20075;-80
2023/05/10 06:52:59;;;;;;;53.58;29.20;;;14.90;99.90;;;;;;5158309;27;20058;-81
2023/05/10 06:55:25;;;;;;;57.78;32.00;;;14.90;99.90;;;;;;5158278;27;20042;-78
2023/05/10 06:57:51;;;;;;;58.25;33.22;;;15.00;99.90;;;;;;5140221;27;20331;-77
2023/05/10 07:00:18;;;;;;;61.25;33.38;;;15.00;99.90;;;;;;5123139;27;20034;-77
2023/05/10 07:02:44;;;;;;;53.25;30.52;;;15.00;99.90;;;;;;5158062;27;20027;-78
2023/05/10 07:05:10;;;;;;;58.75;32.22;;;15.00;99.90;;;;;;5158052;27;20019;-78
2023/05/10 07:07:35;;;;;;;57.13;32.67;;;15.10;99.90;;;;;;5122785;27;20121;-81
2023/05/10 07:10:02;;;;;;;58.10;33.10;;;15.10;99.90;;;;;;5157875;27;20530;-78
2023/05/10 07:12:27;;;;;;;60.95;34.53;;;15.10;99.90;;;;;;5139458;27;20440;-79
2023/05/10 07:14:53;;;;;;;59.00;32.92;;;15.20;99.90;;;;;;5157881;27;20026;-79
2023/05/10 07:17:19;;;;;;;60.30;34.47;;;15.10;99.90;;;;;;5157965;27;20075;-81
2023/05/10 07:19:45;;;;;;;60.67;34.20;;;15.10;99.90;;;;;;5139699;27;20035;-77
2023/05/10 07:22:11;;;;;;;57.17;32.05;;;15.10;99.90;;;;;;5105124;27;20363;-77
2023/05/10 07:24:37;;;;;;;59.55;33.22;;;15.10;99.90;;;;;;5138393;27;20451;-77
2023/05/10 07:27:02;;;;;;;67.07;35.72;;;15.10;99.90;;;;;;5157809;27;20031;-78
2023/05/10 07:29:28;;;;;;;66.55;35.78;;;15.10;99.90;;;;;;5139382;27;20347;-79
2023/05/10 07:31:54;;;;;;;68.90;36.08;;;15.10;99.90;;;;;;5121932;27;20039;-77
2023/05/10 07:34:20;;;;;;;70.80;35.88;;;15.00;99.90;;;;;;5138923;27;20034;-78
2023/05/10 07:36:45;;;;;;;63.35;34.28;;;15.10;99.90;;;;;;5139405;27;20412;-77
2023/05/10 07:39:11;;;;;;;68.03;34.80;;;15.10;99.90;;;;;;5139057;27;20110;-81
2023/05/10 07:41:38;;;;;;;70.78;36.63;;;15.10;99.90;;;;;;5157433;27;20023;-76
2023/05/10 07:44:04;;;;;;;72.30;37.38;;;15.20;99.90;;;;;;5138878;27;20033;-79
2023/05/10 07:46:30;;;;;;;67.32;33.92;;;15.10;99.90;;;;;;5138582;27;20023;-77
2023/05/10 07:48:55;;;;;;;61.92;33.10;;;15.20;99.90;;;;;;5157134;27;20474;-79
2023/05/10 07:51:21;;;;;;;58.10;31.13;;;15.20;99.90;;;;;;5138754;27;20394;-77
2023/05/10 07:53:47;;;;;;;61.47;31.42;;;15.30;99.90;;;;;;5156897;27;20071;-76
2023/05/10 07:56:32;;;;;;;62.45;31.92;;;15.30;99.90;;;;;;5122129;27;20443;-78
2023/05/10 07:58:59;;;;;;;58.88;32.10;;;15.40;99.90;;;;;;5139295;27;20036;-78
2023/05/10 08:01:25;;;;;;;53.38;31.48;;;15.40;99.90;;;;;;5121180;27;20048;-78
2023/05/10 08:03:53;;;;;;;61.95;32.88;;;15.40;99.90;;;;;;5121489;27;20125;-78
2023/05/10 08:06:19;;;;;;;62.72;32.20;;;15.40;99.90;;;;;;5138452;27;20065;-77
2023/05/10 08:08:49;;;;;;;58.55;30.73;;;15.40;99.90;;;;;;5138371;27;20038;-77
2023/05/10 08:11:18;;;;;;;58.65;31.80;;;15.40;99.90;;;;;;5138004;27;20038;-77
2023/05/10 08:13:45;;;;;;;53.83;30.60;;;15.50;99.90;;;;;;5138148;27;20027;-77
2023/05/10 08:16:10;;;;;;;53.55;29.83;;;15.50;99.90;;;;;;5137913;27;20121;-77
2023/05/10 08:18:37;;;;;;;59.83;33.67;;;15.50;99.90;;;;;;5137808;27;20065;-78
2023/05/10 08:21:03;;;;;;;53.33;30.02;;;15.50;99.90;;;;;;5156726;27;20526;-77
2023/05/10 08:23:28;;;;;;;58.47;31.77;;;15.60;99.90;;;;;;5121516;27;20167;-78
2023/05/10 08:25:54;;;;;;;53.03;30.00;;;15.60;99.90;;;;;;5120677;27;20023;-77
2023/05/10 08:28:20;;;;;;;49.75;28.65;;;15.70;99.90;;;;;;5104673;27;20481;-78
2023/05/10 08:30:45;;;;;;;48.88;28.73;;;15.60;99.90;;;;;;5120732;27;20094;-78
2023/05/10 08:33:11;;;;;;;56.47;30.65;;;15.60;99.90;;;;;;5137898;27;20117;-79
2023/05/10 08:35:37;;;;;;;48.85;29.55;;;15.60;99.90;;;;;;5121282;27;20023;-77
2023/05/10 08:38:02;;;;;;;48.28;26.73;;;15.60;99.90;;;;;;5119747;27;20390;-78
2023/05/10 08:40:28;;;;;;;47.75;27.70;;;15.60;99.90;;;;;;5137893;27;20035;-78
2023/05/10 08:43:07;;;;;;;41.53;24.85;;;15.50;99.90;;;;;;5137810;27;20023;-79
2023/05/10 08:45:39;;;;;;;42.40;24.80;;;15.50;99.90;;;;;;5138025;27;20095;-77
2023/05/10 08:48:07;;;;;;;38.08;24.25;;;15.50;99.90;;;;;;5156795;27;20107;-77
2023/05/10 08:50:37;;;;;;;36.33;21.27;;;15.40;99.90;;;;;;5155884;27;20047;-78
2023/05/10 08:53:09;;;;;;;30.83;20.00;;;15.40;99.90;;;;;;5156324;27;20034;-78
2023/05/10 08:55:39;;;;;;;31.65;19.08;;;15.40;99.90;;;;;;5156609;27;20046;-78
2023/05/10 08:58:06;;;;;;;30.45;18.88;;;15.50;99.90;;;;;;5155927;27;20023;-78
2023/05/10 09:00:32;;;;;;;29.20;19.17;;;15.50;99.90;;;;;;5137791;27;20094;-78
2023/05/10 09:02:59;;;;;;;31.33;17.48;;;15.50;99.90;;;;;;5155540;27;20102;-77
2023/05/10 09:05:25;;;;;;;24.88;16.17;;;15.50;99.90;;;;;;5137913;27;20023;-76
2023/05/10 09:07:51;;;;;;;24.08;15.00;;;15.50;99.90;;;;;;5137217;27;20033;-79
2023/05/10 09:10:17;;;;;;;23.25;15.38;;;15.50;99.90;;;;;;5155745;27;20038;-78
2023/05/10 09:12:45;;;;;;;24.95;14.73;;;15.50;99.90;;;;;;5137402;27;20462;-78
2023/05/10 09:15:15;;;;;;;22.13;14.02;;;15.60;99.90;;;;;;5136814;27;20030;-78
2023/05/10 09:17:43;;;;;;;20.70;13.43;;;15.70;99.90;;;;;;5155310;27;20027;-78
2023/05/10 09:20:10;;;;;;;20.73;13.60;;;15.80;99.90;;;;;;5155112;27;20034;-78
2023/05/10 09:22:36;;;;;;;18.15;11.52;;;15.70;99.90;;;;;;5137453;27;20022;-79
2023/05/10 09:25:12;;;;;;;14.98;10.90;;;15.80;99.90;;;;;;5136985;27;20102;-79
2023/05/10 09:27:39;;;;;;;16.98;10.88;;;15.90;99.90;;;;;;5136543;27;20030;-78
2023/05/10 09:30:06;;;;;;;16.35;11.02;;;15.90;99.90;;;;;;5137166;27;20035;-78
2023/05/10 09:32:43;;;;;;;15.07;10.15;;;15.90;99.90;;;;;;5119826;27;20479;-78
2023/05/10 09:35:16;;;;;;;15.40;8.90;;;15.90;99.90;;;;;;5155238;27;20538;-81
2023/05/10 09:37:47;;;;;;;13.73;8.70;;;16.00;99.90;;;;;;5137085;27;20027;-76
2023/05/10 09:40:16;;;;;;;14.32;9.45;;;16.10;99.90;;;;;;5155399;27;20034;-75
2023/05/10 09:42:50;;;;;;;13.13;9.02;;;16.20;99.90;;;;;;5155443;27;20075;-77
2023/05/10 09:45:16;;;;;;;11.40;7.75;;;16.20;99.90;;;;;;5155193;27;20044;-78
2023/05/10 09:47:42;;;;;;;13.07;9.40;;;16.30;99.90;;;;;;5136086;27;20027;-77
2023/05/10 09:50:08;;;;;;;12.15;8.63;;;16.30;99.90;;;;;;5136477;27;20022;-78
2023/05/10 09:52:55;;;;;;;11.52;7.50;;;16.30;99.90;;;;;;5136973;27;20031;-79
2023/05/10 09:55:24;;;;;;;12.77;8.85;;;16.30;99.90;;;;;;5136080;27;20046;-79
2023/05/10 09:57:59;;;;;;;13.07;9.32;;;16.30;99.90;;;;;;5154964;27;20026;-78
2023/05/10 10:00:25;;;;;;;12.98;8.57;;;16.30;99.90;;;;;;5154761;27;20022;-82
2023/05/10 10:02:58;;;;;;;14.38;8.98;;;16.30;99.90;;;;;;5119411;27;20023;-79
2023/05/10 10:05:35;;;;;;;12.68;8.70;;;16.30;99.90;;;;;;5136791;27;20455;-78
2023/05/10 10:08:03;;;;;;;10.20;7.28;;;16.20;99.90;;;;;;5136878;27;20438;-78
2023/05/10 10:10:29;;;;;;;11.25;7.55;;;16.30;99.90;;;;;;5136232;27;20026;-78
2023/05/10 10:12:55;;;;;;;11.65;7.97;;;16.30;99.90;;;;;;5136258;27;20462;-77
2023/05/10 10:15:22;;;;;;;12.85;8.48;;;16.40;99.90;;;;;;5154817;27;20107;-78
2023/05/10 10:17:49;;;;;;;13.32;7.88;;;16.40;99.90;;;;;;5136365;27;20436;-81
2023/05/10 10:20:15;;;;;;;11.48;7.60;;;16.40;99.90;;;;;;5136103;27;20356;-78
2023/05/10 10:22:43;;;;;;;11.50;8.32;;;16.40;99.90;;;;;;5154275;27;20022;-79
2023/05/10 10:25:11;;;;;;;10.27;7.35;;;16.40;99.90;;;;;;5135813;27;20030;-79
2023/05/10 10:27:52;;;;;;;12.98;8.70;;;16.40;99.90;;;;;;5135435;27;20026;-81
2023/05/10 10:30:24;;;;;;;14.52;9.40;;;16.40;99.90;;;;;;5156728;27;20038;-81
2023/05/10 10:32:50;;;;;;;13.20;9.18;;;16.40;99.90;;;;;;5158819;27;20054;-82
2023/05/10 10:35:16;;;;;;;14.10;9.55;;;16.40;99.90;;;;;;5158082;27;20072;-82
2023/05/10 10:37:47;;;;;;;12.95;8.82;;;16.50;99.90;;;;;;5124418;27;20027;-83
2023/05/10 10:40:32;;;;;;;15.60;9.82;;;16.40;99.90;;;;;;5141023;27;20030;-83
2023/05/10 10:43:18;;;;;;;13.52;9.02;;;16.40;99.90;;;;;;5161604;27;20507;-79
2023/05/10 10:46:07;;;;;;;14.52;9.68;;;16.40;99.90;;;;;;5160919;27;20374;-80
2023/05/10 10:48:33;;;;;;;14.32;9.95;;;16.40;99.90;;;;;;5170512;27;20081;-80
2023/05/10 10:50:58;;;;;;;15.00;10.57;;;16.40;99.90;;;;;;5146499;27;20035;-80
2023/05/10 10:53:29;;;;;;;14.23;9.65;;;16.40;99.90;;;;;;5121466;27;20031;-81
2023/05/10 10:56:13;;;;;;;13.07;9.73;;;16.50;99.90;;;;;;5155006;27;20047;-81
2023/05/10 10:58:40;;;;;;;11.88;7.93;;;16.40;99.90;;;;;;5155419;27;20026;-80
2023/05/10 11:01:18;;;;;;;13.30;9.20;;;16.50;99.90;;;;;;5138858;27;20045;-80
2023/05/10 11:04:02;;;;;;;13.45;8.13;;;16.50;99.90;;;;;;5158761;27;20023;-81
2023/05/10 11:06:35;;;;;;;11.95;8.15;;;16.50;99.90;;;;;;5158210;27;20067;-80
2023/05/10 11:09:12;;;;;;;11.23;8.73;;;16.50;99.90;;;;;;5140111;27;20031;-81
2023/05/10 11:11:58;;;;;;;13.30;9.25;;;16.60;99.90;;;;;;5157898;27;20494;-81
2023/05/10 11:14:24;;;;;;;14.27;9.20;;;16.60;99.90;;;;;;5140080;27;20067;-80
2023/05/10 11:16:50;;;;;;;12.88;9.55;;;16.60;99.90;;;;;;5158507;27;20027;-80
2023/05/10 11:19:16;;;;;;;15.65;10.18;;;16.60;99.90;;;;;;5157703;27;20488;-80
2023/05/10 11:21:50;;;;;;;10.63;7.60;;;16.70;99.90;;;;;;5140218;27;20462;-81
2023/05/10 11:24:22;;;;;;;14.32;9.05;;;16.70;99.90;;;;;;5139618;27;20045;-80
2023/05/10 11:26:50;;;;;;;11.15;7.70;;;16.90;99.90;;;;;;5139815;27;20412;-80
2023/05/10 11:29:16;;;;;;;10.13;7.45;;;16.80;99.90;;;;;;5139321;27;20019;-81
2023/05/10 11:31:46;;;;;;;12.10;8.25;;;16.80;99.90;;;;;;5157790;27;20035;-81
2023/05/10 11:34:26;;;;;;;11.15;7.10;;;16.90;99.90;;;;;;5139081;27;20026;-79
2023/05/10 11:36:54;;;;;;;9.70;6.45;;;16.90;99.90;;;;;;5157861;27;20023;-80
2023/05/10 11:39:20;;;;;;;9.43;6.57;;;16.90;99.90;;;;;;5105944;27;20053;-80
2023/05/10 11:41:48;;;;;;;8.20;6.05;;;17.00;99.90;;;;;;5139086;27;20031;-80
2023/05/10 11:44:14;;;;;;;9.18;6.75;;;17.10;99.90;;;;;;5158167;27;20038;-80
2023/05/10 11:46:40;;;;;;;9.63;6.38;;;17.10;99.90;;;;;;5139178;27;20026;-80
2023/05/10 11:49:07;;;;;;;9.73;6.70;;;17.20;99.90;;;;;;5157584;27;20023;-80
2023/05/10 11:51:36;;;;;;;10.93;6.38;;;17.30;99.90;;;;;;5138656;27;20038;-80
2023/05/10 11:54:14;;;;;;;10.27;6.97;;;17.30;99.90;;;;;;5157200;27;20053;-77
2023/05/10 11:56:40;;;;;;;9.63;6.95;;;17.30;99.90;;;;;;5157061;27;20027;-77
2023/05/10 11:59:07;;;;;;;10.70;7.00;;;17.40;99.90;;;;;;5138280;27;20454;-78
2023/05/10 12:01:33;;;;;;;10.93;7.57;;;17.40;99.90;;;;;;5138148;27;20103;-80
2023/05/10 12:04:00;;;;;;;7.57;6.30;;;17.40;99.90;;;;;;5157643;27;20079;-80
2023/05/10 12:06:31;;;;;;;10.90;7.13;;;17.40;99.90;;;;;;5138730;27;20106;-80
2023/05/10 12:08:57;;;;;;;11.15;7.22;;;17.40;99.90;;;;;;5157837;27;20408;-83
2023/05/10 12:11:28;;;;;;;11.32;8.20;;;17.40;99.90;;;;;;5138294;27;20035;-81
2023/05/10 12:13:55;;;;;;;7.63;6.10;;;17.50;99.90;;;;;;5138153;27;20071;-81
2023/05/10 12:16:23;;;;;;;10.75;7.53;;;17.50;99.90;;;;;;5156715;27;20563;-81
2023/05/10 12:18:59;;;;;;;9.15;7.93;;;17.60;99.90;;;;;;5156653;27;20023;-80
2023/05/10 12:21:25;;;;;;;11.63;7.82;;;17.60;99.90;;;;;;5156905;27;20159;-81
2023/05/10 12:23:54;;;;;;;9.05;6.38;;;17.60;99.90;;;;;;5156584;27;20090;-81
2023/05/10 12:26:24;;;;;;;10.52;7.22;;;17.70;99.90;;;;;;5156955;27;20038;-80
2023/05/10 12:28:50;;;;;;;13.32;6.80;;;17.60;99.90;;;;;;5138158;27;20485;-81
2023/05/10 12:31:15;;;;;;;10.65;6.60;;;17.70;99.90;;;;;;5138299;27;20027;-81
2023/05/10 12:33:43;;;;;;;8.07;6.35;;;17.70;99.90;;;;;;5156944;27;20023;-81
2023/05/10 12:36:10;;;;;;;8.77;5.38;;;17.70;99.90;;;;;;5137916;27;20022;-80